sensor_id;sensor_type;location;lat;lon;timestamp;pressure;altitude;pressure_sealevel;temperature;humidity
66703;BME280;60933;46.398;-63.798;2023-05-22T00:01:25;100874.22;;;13.69;78.88
66703;BME280;60933;46.398;-63.798;2023-05-22T00:03:52;100877.72;;;13.68;78.90
66703;BME280;60933;46.398;-63.798;2023-05-22T00:06:19;100869.13;;;13.66;78.96
66703;BME280;60933;46.398;-63.798;2023-05-22T00:08:46;100867.56;;;13.62;78.95
66703;BME280;60933;46.398;-63.798;2023-05-22T00:11:13;100873.50;;;13.66;79.35
66703;BME280;60933;46.398;-63.798;2023-05-22T00:13:39;100882.16;;;13.65;78.97
66703;BME280;60933;46.398;-63.798;2023-05-22T00:16:05;100890.75;;;13.67;78.98
66703;BME280;60933;46.398;-63.798;2023-05-22T00:18:31;100903.72;;;13.67;78.95
66703;BME280;60933;46.398;-63.798;2023-05-22T00:20:58;100899.38;;;13.67;78.83
66703;BME280;60933;46.398;-63.798;2023-05-22T00:23:24;100908.03;;;13.66;78.90
66703;BME280;60933;46.398;-63.798;2023-05-22T00:25:52;100921.00;;;13.66;78.53
66703;BME280;60933;46.398;-63.798;2023-05-22T00:28:18;100908.94;;;13.65;78.49
66703;BME280;60933;46.398;-63.798;2023-05-22T00:30:44;100926.25;;;13.65;78.48
66703;BME280;60933;46.398;-63.798;2023-05-22T00:33:11;100935.78;;;13.64;78.37
66703;BME280;60933;46.398;-63.798;2023-05-22T00:35:37;100940.13;;;13.64;78.04
66703;BME280;60933;46.398;-63.798;2023-05-22T00:38:03;100935.91;;;13.61;78.15
66703;BME280;60933;46.398;-63.798;2023-05-22T00:40:30;100950.56;;;13.62;77.94
66703;BME280;60933;46.398;-63.798;2023-05-22T00:42:57;100953.19;;;13.60;77.84
66703;BME280;60933;46.398;-63.798;2023-05-22T00:45:23;100954.13;;;13.59;77.97
66703;BME280;60933;46.398;-63.798;2023-05-22T00:47:50;100962.81;;;13.57;77.64
66703;BME280;60933;46.398;-63.798;2023-05-22T00:50:18;100964.69;;;13.53;77.74
66703;BME280;60933;46.398;-63.798;2023-05-22T00:52:45;100973.41;;;13.51;77.61
66703;BME280;60933;46.398;-63.798;2023-05-22T00:55:13;100966.66;;;13.47;78.02
66703;BME280;60933;46.398;-63.798;2023-05-22T00:57:40;100977.09;;;13.43;78.42
66703;BME280;60933;46.398;-63.798;2023-05-22T01:00:08;100982.41;;;13.40;78.51
66703;BME280;60933;46.398;-63.798;2023-05-22T01:02:37;100996.28;;;13.39;78.67
66703;BME280;60933;46.398;-63.798;2023-05-22T01:05:04;101001.50;;;13.36;78.46
66703;BME280;60933;46.398;-63.798;2023-05-22T01:07:32;101008.59;;;13.31;78.45
66703;BME280;60933;46.398;-63.798;2023-05-22T01:10:05;101019.00;;;13.29;78.04
66703;BME280;60933;46.398;-63.798;2023-05-22T01:15:25;101032.06;;;13.26;78.38
66703;BME280;60933;46.398;-63.798;2023-05-22T01:21:07;101047.16;;;13.13;77.69
66703;BME280;60933;46.398;-63.798;2023-05-22T01:26:38;101063.16;;;12.98;78.59
66703;BME280;60933;46.398;-63.798;2023-05-22T01:31:58;101073.00;;;12.87;78.81
66703;BME280;60933;46.398;-63.798;2023-05-22T01:34:25;101072.28;;;12.81;78.92
66703;BME280;60933;46.398;-63.798;2023-05-22T01:36:53;101070.69;;;12.76;79.20
66703;BME280;60933;46.398;-63.798;2023-05-22T01:39:21;101083.81;;;12.71;79.04
66703;BME280;60933;46.398;-63.798;2023-05-22T01:41:48;101083.13;;;12.64;79.02
66703;BME280;60933;46.398;-63.798;2023-05-22T01:44:15;101103.25;;;12.55;79.13
66703;BME280;60933;46.398;-63.798;2023-05-22T01:46:41;101125.03;;;12.47;79.88
66703;BME280;60933;46.398;-63.798;2023-05-22T01:49:07;101125.31;;;12.37;80.81
66703;BME280;60933;46.398;-63.798;2023-05-22T01:51:56;101148.63;;;12.35;80.63
66703;BME280;60933;46.398;-63.798;2023-05-22T01:55:05;101154.69;;;12.35;80.45
66703;BME280;60933;46.398;-63.798;2023-05-22T01:59:58;101158.22;;;12.64;77.06
66703;BME280;60933;46.398;-63.798;2023-05-22T02:02:27;101163.94;;;12.77;75.77
66703;BME280;60933;46.398;-63.798;2023-05-22T02:05:04;101169.75;;;12.86;72.71
66703;BME280;60933;46.398;-63.798;2023-05-22T02:07:37;101174.69;;;12.95;69.86
66703;BME280;60933;46.398;-63.798;2023-05-22T02:10:05;101186.66;;;12.99;69.49
66703;BME280;60933;46.398;-63.798;2023-05-22T02:12:33;101208.22;;;13.01;68.21
66703;BME280;60933;46.398;-63.798;2023-05-22T02:14:59;101207.31;;;13.02;67.86
66703;BME280;60933;46.398;-63.798;2023-05-22T02:17:26;101206.44;;;13.02;67.92
66703;BME280;60933;46.398;-63.798;2023-05-22T02:19:52;101211.75;;;12.97;67.94
66703;BME280;60933;46.398;-63.798;2023-05-22T02:22:18;101225.69;;;12.93;67.31
66703;BME280;60933;46.398;-63.798;2023-05-22T02:24:48;101217.19;;;12.88;67.20
66703;BME280;60933;46.398;-63.798;2023-05-22T02:27:14;101231.19;;;12.80;66.69
66703;BME280;60933;46.398;-63.798;2023-05-22T02:29:41;101239.94;;;12.76;67.07
66703;BME280;60933;46.398;-63.798;2023-05-22T02:32:07;101243.59;;;12.69;66.29
66703;BME280;60933;46.398;-63.798;2023-05-22T02:34:33;101248.94;;;12.63;66.51
66703;BME280;60933;46.398;-63.798;2023-05-22T02:37:02;101249.06;;;12.57;66.30
66703;BME280;60933;46.398;-63.798;2023-05-22T02:39:29;101247.50;;;12.49;66.58
66703;BME280;60933;46.398;-63.798;2023-05-22T02:41:55;101258.03;;;12.43;66.16
66703;BME280;60933;46.398;-63.798;2023-05-22T02:44:21;101259.94;;;12.37;65.76
66703;BME280;60933;46.398;-63.798;2023-05-22T02:46:47;101266.06;;;12.32;65.80
66703;BME280;60933;46.398;-63.798;2023-05-22T02:49:13;101257.50;;;12.29;65.62
66703;BME280;60933;46.398;-63.798;2023-05-22T02:51:39;101262.84;;;12.23;65.70
66703;BME280;60933;46.398;-63.798;2023-05-22T02:54:05;101264.69;;;12.17;64.86
66703;BME280;60933;46.398;-63.798;2023-05-22T02:56:32;101277.59;;;12.19;64.97
66703;BME280;60933;46.398;-63.798;2023-05-22T02:58:58;101277.63;;;12.17;64.82
66703;BME280;60933;46.398;-63.798;2023-05-22T03:01:24;101282.88;;;12.14;64.67
66703;BME280;60933;46.398;-63.798;2023-05-22T03:03:51;101279.50;;;12.11;64.54
66703;BME280;60933;46.398;-63.798;2023-05-22T03:06:19;101295.84;;;12.11;64.69
66703;BME280;60933;46.398;-63.798;2023-05-22T03:08:46;101287.41;;;12.05;64.38
66703;BME280;60933;46.398;-63.798;2023-05-22T03:11:13;101296.88;;;12.04;65.02
66703;BME280;60933;46.398;-63.798;2023-05-22T03:13:39;101317.72;;;11.98;64.35
66703;BME280;60933;46.398;-63.798;2023-05-22T03:16:05;101302.25;;;11.95;64.95
66703;BME280;60933;46.398;-63.798;2023-05-22T03:18:32;101310.03;;;11.93;64.89
66703;BME280;60933;46.398;-63.798;2023-05-22T03:20:58;101313.56;;;11.89;65.08
66703;BME280;60933;46.398;-63.798;2023-05-22T03:23:24;101320.53;;;11.85;65.00
66703;BME280;60933;46.398;-63.798;2023-05-22T03:25:50;101327.53;;;11.82;64.03
66703;BME280;60933;46.398;-63.798;2023-05-22T03:28:16;101328.44;;;11.79;63.52
66703;BME280;60933;46.398;-63.798;2023-05-22T03:30:42;101322.53;;;11.72;63.77
66703;BME280;60933;46.398;-63.798;2023-05-22T03:33:08;101340.69;;;11.69;63.51
66703;BME280;60933;46.398;-63.798;2023-05-22T03:35:34;101338.19;;;11.65;63.10
66703;BME280;60933;46.398;-63.798;2023-05-22T03:38:01;101351.25;;;11.59;62.79
66703;BME280;60933;46.398;-63.798;2023-05-22T03:40:27;101366.84;;;11.55;62.76
66703;BME280;60933;46.398;-63.798;2023-05-22T03:42:53;101362.59;;;11.51;61.92
66703;BME280;60933;46.398;-63.798;2023-05-22T03:45:19;101366.94;;;11.49;62.17
66703;BME280;60933;46.398;-63.798;2023-05-22T03:47:45;101374.72;;;11.48;62.50
66703;BME280;60933;46.398;-63.798;2023-05-22T03:50:11;101378.25;;;11.44;62.59
66703;BME280;60933;46.398;-63.798;2023-05-22T03:52:38;101392.09;;;11.39;62.79
66703;BME280;60933;46.398;-63.798;2023-05-22T03:55:05;101395.59;;;11.37;62.89
66703;BME280;60933;46.398;-63.798;2023-05-22T03:57:31;101401.69;;;11.34;63.07
66703;BME280;60933;46.398;-63.798;2023-05-22T03:59:57;101398.25;;;11.34;62.68
66703;BME280;60933;46.398;-63.798;2023-05-22T04:02:30;101409.44;;;11.34;62.79
66703;BME280;60933;46.398;-63.798;2023-05-22T04:04:57;101419.75;;;11.34;62.74
66703;BME280;60933;46.398;-63.798;2023-05-22T04:07:23;101412.94;;;11.30;62.32
66703;BME280;60933;46.398;-63.798;2023-05-22T04:09:49;101435.28;;;11.34;62.20
66703;BME280;60933;46.398;-63.798;2023-05-22T04:12:15;101437.03;;;11.34;62.10
66703;BME280;60933;46.398;-63.798;2023-05-22T04:14:41;101437.91;;;11.33;62.68
66703;BME280;60933;46.398;-63.798;2023-05-22T04:17:07;101452.56;;;11.31;62.08
66703;BME280;60933;46.398;-63.798;2023-05-22T04:19:33;101457.78;;;11.29;62.49
66703;BME280;60933;46.398;-63.798;2023-05-22T04:21:59;101452.63;;;11.26;62.15
66703;BME280;60933;46.398;-63.798;2023-05-22T04:24:25;101456.97;;;11.24;61.82
66703;BME280;60933;46.398;-63.798;2023-05-22T04:26:52;101465.63;;;11.21;61.65
66703;BME280;60933;46.398;-63.798;2023-05-22T04:29:18;101474.31;;;11.17;61.27
66703;BME280;60933;46.398;-63.798;2023-05-22T04:31:46;101467.44;;;11.16;60.81
66703;BME280;60933;46.398;-63.798;2023-05-22T04:34:14;101474.41;;;11.13;61.14
66703;BME280;60933;46.398;-63.798;2023-05-22T04:36:41;101478.75;;;11.07;60.97
66703;BME280;60933;46.398;-63.798;2023-05-22T04:39:09;101485.69;;;11.04;60.56
66703;BME280;60933;46.398;-63.798;2023-05-22T04:41:35;101496.97;;;11.00;60.46
66703;BME280;60933;46.398;-63.798;2023-05-22T04:44:01;101488.44;;;10.95;60.95
66703;BME280;60933;46.398;-63.798;2023-05-22T04:46:28;101497.97;;;10.91;61.34
66703;BME280;60933;46.398;-63.798;2023-05-22T04:48:54;101510.94;;;10.85;61.31
66703;BME280;60933;46.398;-63.798;2023-05-22T04:51:20;101517.91;;;10.80;62.04
66703;BME280;60933;46.398;-63.798;2023-05-22T04:53:47;101519.69;;;10.73;62.21
66703;BME280;60933;46.398;-63.798;2023-05-22T04:56:14;101519.84;;;10.64;61.83
66703;BME280;60933;46.398;-63.798;2023-05-22T04:58:40;101529.34;;;10.60;61.87
66703;BME280;60933;46.398;-63.798;2023-05-22T05:01:06;101537.16;;;10.54;61.91
66703;BME280;60933;46.398;-63.798;2023-05-22T05:03:34;101547.53;;;10.51;61.35
66703;BME280;60933;46.398;-63.798;2023-05-22T05:06:00;101549.31;;;10.45;62.13
66703;BME280;60933;46.398;-63.798;2023-05-22T05:08:26;101560.56;;;10.38;62.13
66703;BME280;60933;46.398;-63.798;2023-05-22T05:10:52;101568.34;;;10.34;62.28
66703;BME280;60933;46.398;-63.798;2023-05-22T05:13:18;101567.53;;;10.30;62.55
66703;BME280;60933;46.398;-63.798;2023-05-22T05:15:44;101570.13;;;10.24;62.54
66703;BME280;60933;46.398;-63.798;2023-05-22T05:18:10;101575.34;;;10.19;63.04
66703;BME280;60933;46.398;-63.798;2023-05-22T05:20:36;101582.28;;;10.14;62.14
66703;BME280;60933;46.398;-63.798;2023-05-22T05:23:03;101590.06;;;10.11;62.19
66703;BME280;60933;46.398;-63.798;2023-05-22T05:25:29;101601.28;;;10.07;62.22
66703;BME280;60933;46.398;-63.798;2023-05-22T05:27:55;101603.88;;;10.05;62.59
66703;BME280;60933;46.398;-63.798;2023-05-22T05:30:22;101611.66;;;10.01;62.67
66703;BME280;60933;46.398;-63.798;2023-05-22T05:32:48;101606.50;;;9.97;63.50
66703;BME280;60933;46.398;-63.798;2023-05-22T05:35:14;101608.28;;;9.89;63.23
66703;BME280;60933;46.398;-63.798;2023-05-22T05:37:40;101620.38;;;9.87;63.34
66703;BME280;60933;46.398;-63.798;2023-05-22T05:40:08;101630.69;;;9.81;63.09
66703;BME280;60933;46.398;-63.798;2023-05-22T05:42:34;101627.28;;;9.77;63.14
66703;BME280;60933;46.398;-63.798;2023-05-22T05:45:00;101631.59;;;9.74;62.87
66703;BME280;60933;46.398;-63.798;2023-05-22T05:47:26;101641.97;;;9.71;63.07
66703;BME280;60933;46.398;-63.798;2023-05-22T05:49:54;101642.88;;;9.63;63.31
66703;BME280;60933;46.398;-63.798;2023-05-22T05:52:20;101658.31;;;9.62;63.53
66703;BME280;60933;46.398;-63.798;2023-05-22T05:54:46;101649.78;;;9.57;63.02
66703;BME280;60933;46.398;-63.798;2023-05-22T05:57:14;101660.97;;;9.54;63.08
66703;BME280;60933;46.398;-63.798;2023-05-22T05:59:40;101664.47;;;9.42;63.54
66703;BME280;60933;46.398;-63.798;2023-05-22T06:02:06;101684.22;;;9.45;63.83
66703;BME280;60933;46.398;-63.798;2023-05-22T06:04:32;101679.94;;;9.38;64.26
66703;BME280;60933;46.398;-63.798;2023-05-22T06:06:58;101704.00;;;9.35;64.41
66703;BME280;60933;46.398;-63.798;2023-05-22T06:09:26;101701.44;;;9.30;64.20
66703;BME280;60933;46.398;-63.798;2023-05-22T06:11:52;101702.31;;;9.25;64.00
66703;BME280;60933;46.398;-63.798;2023-05-22T06:14:18;101711.81;;;9.19;64.10
66703;BME280;60933;46.398;-63.798;2023-05-22T06:16:44;101717.84;;;9.15;64.57
66703;BME280;60933;46.398;-63.798;2023-05-22T06:19:10;101723.00;;;9.11;64.79
66703;BME280;60933;46.398;-63.798;2023-05-22T06:21:37;101735.03;;;9.07;65.17
66703;BME280;60933;46.398;-63.798;2023-05-22T06:24:03;101741.91;;;9.00;65.67
66703;BME280;60933;46.398;-63.798;2023-05-22T06:26:30;101747.94;;;8.93;66.78
66703;BME280;60933;46.398;-63.798;2023-05-22T06:28:56;101748.81;;;8.84;67.59
66703;BME280;60933;46.398;-63.798;2023-05-22T06:31:22;101755.66;;;8.79;67.26
66703;BME280;60933;46.398;-63.798;2023-05-22T06:33:49;101763.41;;;8.71;66.48
66703;BME280;60933;46.398;-63.798;2023-05-22T06:36:16;101766.00;;;8.65;66.67
66703;BME280;60933;46.398;-63.798;2023-05-22T06:38:43;101762.53;;;8.55;66.78
66703;BME280;60933;46.398;-63.798;2023-05-22T06:41:10;101774.56;;;8.52;66.34
66703;BME280;60933;46.398;-63.798;2023-05-22T06:43:36;101774.53;;;8.46;66.64
66703;BME280;60933;46.398;-63.798;2023-05-22T06:46:02;101785.66;;;8.38;67.43
66703;BME280;60933;46.398;-63.798;2023-05-22T06:48:33;101784.81;;;8.30;67.39
66703;BME280;60933;46.398;-63.798;2023-05-22T06:51:00;101784.78;;;8.21;67.60
66703;BME280;60933;46.398;-63.798;2023-05-22T06:53:26;101805.34;;;8.16;67.86
66703;BME280;60933;46.398;-63.798;2023-05-22T06:55:52;101801.91;;;8.10;68.37
66703;BME280;60933;46.398;-63.798;2023-05-22T06:58:18;101817.31;;;8.02;68.79
66703;BME280;60933;46.398;-63.798;2023-05-22T07:00:44;101830.16;;;7.97;68.77
66703;BME280;60933;46.398;-63.798;2023-05-22T07:03:10;101832.69;;;7.91;69.24
66703;BME280;60933;46.398;-63.798;2023-05-22T07:05:36;101836.13;;;7.87;69.69
66703;BME280;60933;46.398;-63.798;2023-05-22T07:08:03;101833.53;;;7.81;70.15
66703;BME280;60933;46.398;-63.798;2023-05-22T07:10:29;101850.66;;;7.79;70.81
66703;BME280;60933;46.398;-63.798;2023-05-22T07:12:55;101857.50;;;7.75;71.33
66703;BME280;60933;46.398;-63.798;2023-05-22T07:15:21;101850.59;;;7.69;71.24
66703;BME280;60933;46.398;-63.798;2023-05-22T07:17:47;101854.00;;;7.64;71.27
66703;BME280;60933;46.398;-63.798;2023-05-22T07:20:13;101859.09;;;7.59;71.25
66703;BME280;60933;46.398;-63.798;2023-05-22T07:22:41;101865.09;;;7.55;71.56
66703;BME280;60933;46.398;-63.798;2023-05-22T07:25:07;101874.50;;;7.50;70.72
66703;BME280;60933;46.398;-63.798;2023-05-22T07:27:33;101877.00;;;7.42;70.69
66703;BME280;60933;46.398;-63.798;2023-05-22T07:30:00;101881.25;;;7.37;70.03
66703;BME280;60933;46.398;-63.798;2023-05-22T07:32:26;101890.66;;;7.33;69.13
66703;BME280;60933;46.398;-63.798;2023-05-22T07:34:52;101888.91;;;7.27;69.06
66703;BME280;60933;46.398;-63.798;2023-05-22T07:37:18;101894.84;;;7.20;68.19
66703;BME280;60933;46.398;-63.798;2023-05-22T07:39:44;101899.03;;;7.13;68.40
66703;BME280;60933;46.398;-63.798;2023-05-22T07:42:11;101899.88;;;7.09;69.14
66703;BME280;60933;46.398;-63.798;2023-05-22T07:44:39;101904.97;;;7.06;69.07
66703;BME280;60933;46.398;-63.798;2023-05-22T07:47:06;101909.22;;;7.01;69.52
66703;BME280;60933;46.398;-63.798;2023-05-22T07:49:32;101915.19;;;6.97;69.77
66703;BME280;60933;46.398;-63.798;2023-05-22T07:51:58;101909.13;;;6.90;70.42
66703;BME280;60933;46.398;-63.798;2023-05-22T07:54:24;101916.84;;;6.89;70.66
66703;BME280;60933;46.398;-63.798;2023-05-22T07:56:51;101916.75;;;6.79;71.57
66703;BME280;60933;46.398;-63.798;2023-05-22T07:59:17;101926.97;;;6.76;71.44
66703;BME280;60933;46.398;-63.798;2023-05-22T08:01:46;101927.78;;;6.72;71.62
66703;BME280;60933;46.398;-63.798;2023-05-22T08:04:12;101934.56;;;6.65;71.50
66703;BME280;60933;46.398;-63.798;2023-05-22T08:06:38;101941.34;;;6.62;71.86
66703;BME280;60933;46.398;-63.798;2023-05-22T08:09:04;101949.84;;;6.56;71.34
66703;BME280;60933;46.398;-63.798;2023-05-22T08:11:30;101939.47;;;6.45;70.92
66703;BME280;60933;46.398;-63.798;2023-05-22T08:13:57;101952.22;;;6.39;69.96
66703;BME280;60933;46.398;-63.798;2023-05-22T08:16:23;101965.84;;;6.35;69.63
66703;BME280;60933;46.398;-63.798;2023-05-22T08:18:49;101970.88;;;6.29;69.17
66703;BME280;60933;46.398;-63.798;2023-05-22T08:21:15;101969.13;;;6.25;68.58
66703;BME280;60933;46.398;-63.798;2023-05-22T08:23:41;101974.22;;;6.22;68.40
66703;BME280;60933;46.398;-63.798;2023-05-22T08:26:07;101967.34;;;6.17;68.13
66703;BME280;60933;46.398;-63.798;2023-05-22T08:28:34;101974.97;;;6.14;68.48
66703;BME280;60933;46.398;-63.798;2023-05-22T08:31:01;101974.88;;;6.07;68.54
66703;BME280;60933;46.398;-63.798;2023-05-22T08:33:27;101982.59;;;6.08;69.00
66703;BME280;60933;46.398;-63.798;2023-05-22T08:35:53;101990.19;;;6.02;69.27
66703;BME280;60933;46.398;-63.798;2023-05-22T08:38:20;101985.81;;;5.98;70.12
66703;BME280;60933;46.398;-63.798;2023-05-22T08:40:47;101997.78;;;5.96;70.31
66703;BME280;60933;46.398;-63.798;2023-05-22T08:43:18;102001.13;;;5.92;70.56
66703;BME280;60933;46.398;-63.798;2023-05-22T08:45:45;102005.31;;;5.86;70.65
66703;BME280;60933;46.398;-63.798;2023-05-22T08:48:12;102012.09;;;5.81;71.17
66703;BME280;60933;46.398;-63.798;2023-05-22T08:50:40;102009.44;;;5.77;71.20
66703;BME280;60933;46.398;-63.798;2023-05-22T08:53:11;102020.47;;;5.73;71.06
66703;BME280;60933;46.398;-63.798;2023-05-22T08:55:40;102024.66;;;5.66;71.66
66703;BME280;60933;46.398;-63.798;2023-05-22T08:58:07;102024.59;;;5.63;71.62
66703;BME280;60933;46.398;-63.798;2023-05-22T09:00:36;102022.88;;;5.62;71.45
66703;BME280;60933;46.398;-63.798;2023-05-22T09:03:03;102029.66;;;5.60;71.09
66703;BME280;60933;46.398;-63.798;2023-05-22T09:05:31;102034.75;;;5.58;71.63
66703;BME280;60933;46.398;-63.798;2023-05-22T09:07:58;102039.88;;;5.57;71.62
66703;BME280;60933;46.398;-63.798;2023-05-22T09:10:26;102013.16;;;5.42;68.67
66703;BME280;60933;46.398;-63.798;2023-05-22T09:13:05;102032.94;;;5.51;66.72
66703;BME280;60933;46.398;-63.798;2023-05-22T09:15:34;102039.81;;;5.53;65.04
66703;BME280;60933;46.398;-63.798;2023-05-22T09:18:04;102043.28;;;5.57;65.76
66703;BME280;60933;46.398;-63.798;2023-05-22T09:20:34;102043.31;;;5.59;64.53
66703;BME280;60933;46.398;-63.798;2023-05-22T09:23:10;102053.56;;;5.59;63.83
66703;BME280;60933;46.398;-63.798;2023-05-22T09:25:36;102052.69;;;5.57;63.40
66703;BME280;60933;46.398;-63.798;2023-05-22T09:28:03;102062.94;;;5.58;63.47
66703;BME280;60933;46.398;-63.798;2023-05-22T09:30:33;102068.06;;;5.58;63.95
66703;BME280;60933;46.398;-63.798;2023-05-22T09:33:02;102074.00;;;5.55;64.34
66703;BME280;60933;46.398;-63.798;2023-05-22T09:35:31;102086.81;;;5.55;63.33
66703;BME280;60933;46.398;-63.798;2023-05-22T09:37:57;102080.78;;;5.53;63.23
66703;BME280;60933;46.398;-63.798;2023-05-22T09:40:26;102091.09;;;5.55;62.43
66703;BME280;60933;46.398;-63.798;2023-05-22T09:42:53;102099.63;;;5.55;61.83
66703;BME280;60933;46.398;-63.798;2023-05-22T09:45:23;102107.38;;;5.59;61.69
66703;BME280;60933;46.398;-63.798;2023-05-22T09:47:49;102106.50;;;5.60;61.86
66703;BME280;60933;46.398;-63.798;2023-05-22T09:50:15;102113.34;;;5.61;61.76
66703;BME280;60933;46.398;-63.798;2023-05-22T09:52:44;102123.75;;;5.67;62.08
66703;BME280;60933;46.398;-63.798;2023-05-22T09:55:12;102133.09;;;5.66;59.89
66703;BME280;60933;46.398;-63.798;2023-05-22T09:57:43;102142.59;;;5.70;60.31
66703;BME280;60933;46.398;-63.798;2023-05-22T10:00:12;102128.13;;;5.74;59.93
66703;BME280;60933;46.398;-63.798;2023-05-22T10:02:45;102144.34;;;5.75;59.66
66703;BME280;60933;46.398;-63.798;2023-05-22T10:05:12;102140.06;;;5.74;58.65
66703;BME280;60933;46.398;-63.798;2023-05-22T10:07:50;102140.97;;;5.77;57.91
66703;BME280;60933;46.398;-63.798;2023-05-22T10:10:21;102144.38;;;5.76;57.27
66703;BME280;60933;46.398;-63.798;2023-05-22T10:13:06;102154.78;;;5.84;58.72
66703;BME280;60933;46.398;-63.798;2023-05-22T10:15:33;102154.88;;;5.89;57.68
66703;BME280;60933;46.398;-63.798;2023-05-22T10:18:00;102158.34;;;5.92;58.07
66703;BME280;60933;46.398;-63.798;2023-05-22T10:20:27;102157.53;;;5.96;58.17
66703;BME280;60933;46.398;-63.798;2023-05-22T10:22:55;102164.41;;;5.97;57.60
66703;BME280;60933;46.398;-63.798;2023-05-22T10:25:22;102170.47;;;5.99;57.87
66703;BME280;60933;46.398;-63.798;2023-05-22T10:27:51;102173.94;;;6.03;58.30
66703;BME280;60933;46.398;-63.798;2023-05-22T10:30:46;102179.13;;;6.08;59.52
66703;BME280;60933;46.398;-63.798;2023-05-22T10:33:24;102180.06;;;6.11;59.33
66703;BME280;60933;46.398;-63.798;2023-05-22T10:36:00;102179.22;;;6.12;59.67
66703;BME280;60933;46.398;-63.798;2023-05-22T10:41:06;102179.31;;;6.18;57.70
66703;BME280;60933;46.398;-63.798;2023-05-22T10:43:32;102187.94;;;6.22;58.30
66703;BME280;60933;46.398;-63.798;2023-05-22T10:46:04;102188.75;;;6.21;57.47
66703;BME280;60933;46.398;-63.798;2023-05-22T10:48:38;102185.28;;;6.17;57.19
66703;BME280;60933;46.398;-63.798;2023-05-22T10:51:06;102183.63;;;6.20;58.25
66703;BME280;60933;46.398;-63.798;2023-05-22T10:53:33;102199.13;;;6.29;58.47
66703;BME280;60933;46.398;-63.798;2023-05-22T10:56:11;102197.53;;;6.34;58.92
66703;BME280;60933;46.398;-63.798;2023-05-22T10:58:38;102209.59;;;6.40;57.74
66703;BME280;60933;46.398;-63.798;2023-05-22T11:01:19;102208.72;;;6.39;56.37
66703;BME280;60933;46.398;-63.798;2023-05-22T11:06:39;102225.88;;;6.43;56.12
66703;BME280;60933;46.398;-63.798;2023-05-22T11:17:26;102227.66;;;6.47;57.15
66703;BME280;60933;46.398;-63.798;2023-05-22T11:22:42;102233.69;;;6.51;57.10
66703;BME280;60933;46.398;-63.798;2023-05-22T11:25:10;102250.09;;;6.61;55.99
66703;BME280;60933;46.398;-63.798;2023-05-22T11:27:41;102242.41;;;6.61;55.52
66703;BME280;60933;46.398;-63.798;2023-05-22T11:30:10;102248.56;;;6.72;55.15
66703;BME280;60933;46.398;-63.798;2023-05-22T11:32:40;102244.31;;;6.74;55.13
66703;BME280;60933;46.398;-63.798;2023-05-22T11:35:16;102239.25;;;6.79;56.07
66703;BME280;60933;46.398;-63.798;2023-05-22T11:37:42;102258.19;;;6.87;56.95
66703;BME280;60933;46.398;-63.798;2023-05-22T11:40:11;102263.28;;;6.84;55.53
66703;BME280;60933;46.398;-63.798;2023-05-22T11:42:37;102269.38;;;6.91;55.91
66703;BME280;60933;46.398;-63.798;2023-05-22T11:45:04;102262.50;;;6.90;56.18
66703;BME280;60933;46.398;-63.798;2023-05-22T11:47:31;102276.16;;;6.86;56.45
66703;BME280;60933;46.398;-63.798;2023-05-22T11:49:58;102278.72;;;6.86;56.52
66703;BME280;60933;46.398;-63.798;2023-05-22T11:52:34;102286.41;;;6.84;56.19
66703;BME280;60933;46.398;-63.798;2023-05-22T11:55:02;102288.16;;;6.90;55.95
66703;BME280;60933;46.398;-63.798;2023-05-22T11:57:30;102286.56;;;6.95;55.97
66703;BME280;60933;46.398;-63.798;2023-05-22T11:59:57;102297.72;;;6.97;54.49
66703;BME280;60933;46.398;-63.798;2023-05-22T12:02:23;102302.16;;;7.09;55.99
66703;BME280;60933;46.398;-63.798;2023-05-22T12:04:53;102285.13;;;7.16;55.98
66703;BME280;60933;46.398;-63.798;2023-05-22T12:07:20;102315.25;;;7.26;54.85
66703;BME280;60933;46.398;-63.798;2023-05-22T12:09:47;102311.88;;;7.28;55.44
66703;BME280;60933;46.398;-63.798;2023-05-22T12:12:17;102314.50;;;7.33;56.07
66703;BME280;60933;46.398;-63.798;2023-05-22T12:14:44;102309.31;;;7.30;56.06
66703;BME280;60933;46.398;-63.798;2023-05-22T12:17:15;102324.09;;;7.48;56.09
66703;BME280;60933;46.398;-63.798;2023-05-22T12:19:42;102308.69;;;7.48;56.28
66703;BME280;60933;46.398;-63.798;2023-05-22T12:22:10;102319.09;;;7.59;58.26
66703;BME280;60933;46.398;-63.798;2023-05-22T12:24:41;102310.53;;;7.58;59.14
66703;BME280;60933;46.398;-63.798;2023-05-22T12:27:08;102326.94;;;7.68;58.16
66703;BME280;60933;46.398;-63.798;2023-05-22T12:29:36;102327.00;;;7.74;57.45
66703;BME280;60933;46.398;-63.798;2023-05-22T12:32:03;102332.31;;;7.85;57.51
66703;BME280;60933;46.398;-63.798;2023-05-22T12:34:56;102343.50;;;7.89;57.16
66703;BME280;60933;46.398;-63.798;2023-05-22T12:37:21;102344.41;;;7.96;54.77
66703;BME280;60933;46.398;-63.798;2023-05-22T12:39:59;102350.53;;;8.05;56.69
66703;BME280;60933;46.398;-63.798;2023-05-22T12:42:26;102360.13;;;8.22;58.06
66703;BME280;60933;46.398;-63.798;2023-05-22T12:44:56;102352.38;;;8.16;54.45
66703;BME280;60933;46.398;-63.798;2023-05-22T12:47:24;102351.59;;;8.23;55.15
66703;BME280;60933;46.398;-63.798;2023-05-22T12:49:50;102351.53;;;8.18;54.34
66703;BME280;60933;46.398;-63.798;2023-05-22T12:52:16;102373.16;;;8.37;55.67
66703;BME280;60933;46.398;-63.798;2023-05-22T12:54:43;102375.94;;;8.54;55.76
66703;BME280;60933;46.398;-63.798;2023-05-22T12:57:09;102379.44;;;8.60;54.60
66703;BME280;60933;46.398;-63.798;2023-05-22T12:59:35;102381.22;;;8.70;55.44
66703;BME280;60933;46.398;-63.798;2023-05-22T13:02:03;102369.34;;;8.83;54.09
66703;BME280;60933;46.398;-63.798;2023-05-22T13:04:30;102371.88;;;8.77;54.29
66703;BME280;60933;46.398;-63.798;2023-05-22T13:06:56;102375.34;;;8.80;52.84
66703;BME280;60933;46.398;-63.798;2023-05-22T13:09:22;102389.94;;;8.80;52.61